Alpine, CA

2:40 AM PDT on November 01, 2014 (GMT -0700)
Alpine: Rancho Palo Verde | Change Station
CLOSE
Current Station
Personal Weather Station
Location: Alpine, CA
Elevation: 2015 ft
Nearby Weather Stations

Elev 2015 ft 32.81 °N, 116.76 °W | Updated 3 seconds ago

Overcast
Overcast
54.3 °F
Feels Like 54.3 °F
N
6.0
Wind Variable Wind from SSE
Gusts 6.0 mph

Today
High -- | Low -- °F
--% Chance of Precip.
Yesterday
High -- | Low -- °F
Precip. -- in
7:04 AM 5:55 PM
Waxing Gibbous, 64% visible
Pressure 29.90 in
Visibility 10.0 miles
Clouds Overcast 5000 ft
Dew Point 53 °F
Humidity 94%
Rainfall 0.00 in
Snow Depth Not available.
UV 0 out of 12
Pollen 2.70 out of 12
Air Quality Not available.
Flu Activity Not available.
METAR KSEE 010935Z AUTO 15006KT 10SM OVC050 18/13 A2990 RMK AO2

More Conditions Fewer Conditions

Pressure 29.90 in
Visibility 10.0 miles
Clouds Overcast 5000 ft
Dew Point 53 °F
Humidity 94%
Rainfall 0.00 in
Snow Depth Not available.
UV 0 out of 12
Pollen 2.70 out of 12
Air Quality Not available.
Flu Activity Not available.
METAR KSEE 010935Z AUTO 15006KT 10SM OVC050 18/13 A2990 RMK AO2

More Conditions Fewer Conditions

10-Day Weather Forecast

Almanac

Astronomy

Nov. 01, 2014 Rise Set
Actual Time
Civil Twilight
Nautical Twilight
Astronomical Twilight
Moon
Length of Visible Light
Length of Day
Tomorrow will be .
, % of the Moon is Illuminated

Today's Extremes

State Highs State Lows

Community

WunderPhotos

Upload Photos

1,766,872 photos uploaded!

WunderBlogs® & News

Nearby

Air Quality

  Air Quality AQ Index Pollutant
Not available.

Snow Depth

Station Depth Elevation

Earthquake Activity

City Distance Mag. Time & Date
Minimum magnitude displayed is 2.5.

Coastal Water Temperatures

Place Temperature

Nearby Weather Stations